sensor_id;sensor_type;location;lat;lon;timestamp;pressure;altitude;pressure_sealevel;temperature;humidity
57644;BME280;43474;46.510;6.686;2023-02-12T00:01:20;98183.06;;;0.60;100.00
57644;BME280;43474;46.510;6.686;2023-02-12T00:03:46;98202.91;;;0.51;100.00
57644;BME280;43474;46.510;6.686;2023-02-12T00:06:12;98192.88;;;0.47;100.00
57644;BME280;43474;46.510;6.686;2023-02-12T00:08:38;98201.66;;;0.46;100.00
57644;BME280;43474;46.510;6.686;2023-02-12T00:11:15;98212.28;;;0.33;100.00
57644;BME280;43474;46.510;6.686;2023-02-12T00:13:41;98204.59;;;0.32;100.00
57644;BME280;43474;46.510;6.686;2023-02-12T00:16:09;98180.69;;;0.27;100.00
57644;BME280;43474;46.510;6.686;2023-02-12T00:18:35;98206.09;;;0.55;100.00
57644;BME280;43474;46.510;6.686;2023-02-12T00:21:02;98188.66;;;0.56;100.00
57644;BME280;43474;46.510;6.686;2023-02-12T00:23:27;98202.06;;;0.72;100.00
57644;BME280;43474;46.510;6.686;2023-02-12T00:25:53;98181.13;;;0.62;100.00
57644;BME280;43474;46.510;6.686;2023-02-12T00:28:19;98186.69;;;0.48;100.00
57644;BME280;43474;46.510;6.686;2023-02-12T00:30:44;98201.16;;;0.31;100.00
57644;BME280;43474;46.510;6.686;2023-02-12T00:33:10;98192.38;;;0.11;100.00
57644;BME280;43474;46.510;6.686;2023-02-12T00:35:35;98192.75;;;0.07;100.00
57644;BME280;43474;46.510;6.686;2023-02-12T00:38:01;98198.94;;;0.06;100.00
57644;BME280;43474;46.510;6.686;2023-02-12T00:40:27;98209.09;;;0.09;100.00
57644;BME280;43474;46.510;6.686;2023-02-12T00:42:52;98198.50;;;0.01;100.00
57644;BME280;43474;46.510;6.686;2023-02-12T00:45:18;98189.50;;;-0.07;100.00
57644;BME280;43474;46.510;6.686;2023-02-12T00:47:44;98209.16;;;-0.03;100.00
57644;BME280;43474;46.510;6.686;2023-02-12T00:50:10;98206.59;;;-0.14;100.00
57644;BME280;43474;46.510;6.686;2023-02-12T00:52:35;98199.75;;;-0.15;100.00
57644;BME280;43474;46.510;6.686;2023-02-12T00:55:01;98192.84;;;-0.16;100.00
57644;BME280;43474;46.510;6.686;2023-02-12T00:57:26;98215.19;;;-0.02;100.00
57644;BME280;43474;46.510;6.686;2023-02-12T00:59:52;98212.97;;;-0.07;100.00
57644;BME280;43474;46.510;6.686;2023-02-12T01:02:17;98220.16;;;0.01;100.00
57644;BME280;43474;46.510;6.686;2023-02-12T01:04:43;98210.91;;;-0.24;100.00
57644;BME280;43474;46.510;6.686;2023-02-12T01:07:09;98208.91;;;-0.32;100.00
57644;BME280;43474;46.510;6.686;2023-02-12T01:09:35;98196.97;;;-0.34;100.00
57644;BME280;43474;46.510;6.686;2023-02-12T01:12:00;98206.47;;;-0.44;100.00
57644;BME280;43474;46.510;6.686;2023-02-12T01:14:26;98213.03;;;-0.61;100.00
57644;BME280;43474;46.510;6.686;2023-02-12T01:16:52;98201.06;;;-0.53;100.00
57644;BME280;43474;46.510;6.686;2023-02-12T01:19:18;98195.22;;;-0.45;100.00
57644;BME280;43474;46.510;6.686;2023-02-12T01:21:43;98205.25;;;-0.40;100.00
57644;BME280;43474;46.510;6.686;2023-02-12T01:24:09;98219.75;;;-0.47;100.00
57644;BME280;43474;46.510;6.686;2023-02-12T01:26:35;98212.06;;;-0.49;100.00
57644;BME280;43474;46.510;6.686;2023-02-12T01:29:03;98216.19;;;-0.46;100.00
57644;BME280;43474;46.510;6.686;2023-02-12T01:31:32;98218.22;;;-0.61;100.00
57644;BME280;43474;46.510;6.686;2023-02-12T01:33:59;98199.09;;;-0.71;100.00
57644;BME280;43474;46.510;6.686;2023-02-12T01:36:26;98181.69;;;-0.71;100.00
57644;BME280;43474;46.510;6.686;2023-02-12T01:38:52;98205.84;;;-0.69;100.00
57644;BME280;43474;46.510;6.686;2023-02-12T01:41:23;98200.38;;;-0.55;100.00
57644;BME280;43474;46.510;6.686;2023-02-12T01:46:31;98195.88;;;-0.75;100.00
57644;BME280;43474;46.510;6.686;2023-02-12T01:48:57;98191.41;;;-0.73;100.00
57644;BME280;43474;46.510;6.686;2023-02-12T01:51:23;98187.66;;;-0.91;100.00
57644;BME280;43474;46.510;6.686;2023-02-12T01:53:52;98187.75;;;-0.82;100.00
57644;BME280;43474;46.510;6.686;2023-02-12T01:56:19;98178.38;;;-0.73;100.00
57644;BME280;43474;46.510;6.686;2023-02-12T01:58:46;98163.13;;;-0.77;100.00
57644;BME280;43474;46.510;6.686;2023-02-12T02:01:18;98171.91;;;-0.79;100.00
57644;BME280;43474;46.510;6.686;2023-02-12T02:03:48;98192.56;;;-0.55;100.00
57644;BME280;43474;46.510;6.686;2023-02-12T02:06:18;98200.31;;;-0.43;100.00
57644;BME280;43474;46.510;6.686;2023-02-12T02:08:45;98187.41;;;-0.45;100.00
57644;BME280;43474;46.510;6.686;2023-02-12T02:11:11;98167.06;;;-0.51;100.00
57644;BME280;43474;46.510;6.686;2023-02-12T02:13:55;98183.28;;;-0.47;100.00
57644;BME280;43474;46.510;6.686;2023-02-12T02:16:44;98159.53;;;-0.54;100.00
57644;BME280;43474;46.510;6.686;2023-02-12T02:22:30;98169.91;;;-0.22;100.00
57644;BME280;43474;46.510;6.686;2023-02-12T02:25:09;98168.72;;;-0.18;100.00
57644;BME280;43474;46.510;6.686;2023-02-12T02:28:01;98176.47;;;-0.07;100.00
57644;BME280;43474;46.510;6.686;2023-02-12T02:33:38;98153.31;;;-0.21;100.00
57644;BME280;43474;46.510;6.686;2023-02-12T02:39:08;98169.59;;;-0.29;100.00
57644;BME280;43474;46.510;6.686;2023-02-12T02:41:58;98175.28;;;-0.03;100.00
57644;BME280;43474;46.510;6.686;2023-02-12T02:44:34;98174.00;;;0.13;100.00
57644;BME280;43474;46.510;6.686;2023-02-12T02:47:06;98156.53;;;0.04;100.00
57644;BME280;43474;46.510;6.686;2023-02-12T02:49:39;98173.28;;;-0.10;100.00
57644;BME280;43474;46.510;6.686;2023-02-12T02:52:11;98164.03;;;-0.24;100.00
57644;BME280;43474;46.510;6.686;2023-02-12T02:54:43;98169.09;;;-0.22;100.00
57644;BME280;43474;46.510;6.686;2023-02-12T02:57:22;98158.09;;;-0.26;100.00
57644;BME280;43474;46.510;6.686;2023-02-12T03:00:05;98142.84;;;-0.31;100.00
57644;BME280;43474;46.510;6.686;2023-02-12T03:02:36;98164.34;;;-0.17;100.00
57644;BME280;43474;46.510;6.686;2023-02-12T03:05:07;98160.22;;;-0.20;100.00
57644;BME280;43474;46.510;6.686;2023-02-12T03:07:37;98161.28;;;-0.02;100.00
57644;BME280;43474;46.510;6.686;2023-02-12T03:10:11;98164.66;;;-0.11;100.00
57644;BME280;43474;46.510;6.686;2023-02-12T03:12:47;98152.88;;;-0.26;100.00
57644;BME280;43474;46.510;6.686;2023-02-12T03:15:24;98169.59;;;-0.29;100.00
57644;BME280;43474;46.510;6.686;2023-02-12T03:17:52;98175.94;;;-0.42;100.00
57644;BME280;43474;46.510;6.686;2023-02-12T03:20:28;98157.84;;;-0.44;100.00
57644;BME280;43474;46.510;6.686;2023-02-12T03:23:01;98150.09;;;-0.34;100.00
57644;BME280;43474;46.510;6.686;2023-02-12T03:25:33;98155.69;;;-0.18;100.00
57644;BME280;43474;46.510;6.686;2023-02-12T03:28:07;98147.81;;;-0.28;100.00
57644;BME280;43474;46.510;6.686;2023-02-12T03:39:30;98167.00;;;-0.29;100.00
57644;BME280;43474;46.510;6.686;2023-02-12T03:42:03;98162.66;;;-0.39;100.00
57644;BME280;43474;46.510;6.686;2023-02-12T03:44:52;98172.22;;;-0.29;100.00
57644;BME280;43474;46.510;6.686;2023-02-12T03:47:48;98176.22;;;-0.57;100.00
57644;BME280;43474;46.510;6.686;2023-02-12T03:52:42;98167.88;;;-0.39;100.00
57644;BME280;43474;46.510;6.686;2023-02-12T03:55:09;98174.38;;;-0.45;100.00
57644;BME280;43474;46.510;6.686;2023-02-12T03:57:41;98173.88;;;-0.60;100.00
57644;BME280;43474;46.510;6.686;2023-02-12T04:00:14;98170.81;;;-0.76;100.00
57644;BME280;43474;46.510;6.686;2023-02-12T04:02:41;98161.97;;;-0.96;100.00
57644;BME280;43474;46.510;6.686;2023-02-12T04:05:15;98138.72;;;-1.09;100.00
57644;BME280;43474;46.510;6.686;2023-02-12T04:07:40;98159.84;;;-0.91;100.00
57644;BME280;43474;46.510;6.686;2023-02-12T04:10:07;98173.69;;;-0.79;100.00
57644;BME280;43474;46.510;6.686;2023-02-12T04:12:38;98175.34;;;-0.89;100.00
57644;BME280;43474;46.510;6.686;2023-02-12T04:17:50;98181.94;;;-0.74;100.00
57644;BME280;43474;46.510;6.686;2023-02-12T04:33:39;98155.00;;;-0.84;100.00
57644;BME280;43474;46.510;6.686;2023-02-12T04:36:13;98166.44;;;-0.75;100.00
57644;BME280;43474;46.510;6.686;2023-02-12T04:38:45;98159.84;;;-0.91;100.00
57644;BME280;43474;46.510;6.686;2023-02-12T04:41:12;98175.59;;;-0.92;100.00
57644;BME280;43474;46.510;6.686;2023-02-12T04:43:38;98157.41;;;-1.03;100.00
57644;BME280;43474;46.510;6.686;2023-02-12T04:46:05;98177.97;;;-0.89;100.00
57644;BME280;43474;46.510;6.686;2023-02-12T04:48:31;98169.09;;;-0.98;100.00
57644;BME280;43474;46.510;6.686;2023-02-12T04:50:59;98169.88;;;-0.86;100.00
57644;BME280;43474;46.510;6.686;2023-02-12T04:53:24;98176.66;;;-0.84;100.00
57644;BME280;43474;46.510;6.686;2023-02-12T04:55:50;98175.91;;;-0.86;100.00
57644;BME280;43474;46.510;6.686;2023-02-12T04:58:16;98174.28;;;-0.87;100.00
57644;BME280;43474;46.510;6.686;2023-02-12T05:00:42;98170.97;;;-0.89;100.00
57644;BME280;43474;46.510;6.686;2023-02-12T05:03:08;98161.06;;;-1.06;100.00
57644;BME280;43474;46.510;6.686;2023-02-12T05:05:34;98159.38;;;-0.96;100.00
57644;BME280;43474;46.510;6.686;2023-02-12T05:08:00;98175.25;;;-1.21;100.00
57644;BME280;43474;46.510;6.686;2023-02-12T05:10:26;98183.88;;;-1.10;100.00
57644;BME280;43474;46.510;6.686;2023-02-12T05:12:52;98177.84;;;-0.99;100.00
57644;BME280;43474;46.510;6.686;2023-02-12T05:15:18;98143.22;;;-1.22;100.00
57644;BME280;43474;46.510;6.686;2023-02-12T05:17:43;98154.69;;;-1.13;100.00
57644;BME280;43474;46.510;6.686;2023-02-12T05:20:11;98161.69;;;-1.14;100.00
57644;BME280;43474;46.510;6.686;2023-02-12T05:22:36;98140.19;;;-1.38;100.00
57644;BME280;43474;46.510;6.686;2023-02-12T05:25:02;98145.59;;;-1.41;100.00
57644;BME280;43474;46.510;6.686;2023-02-12T05:27:28;98159.28;;;-1.06;100.00
57644;BME280;43474;46.510;6.686;2023-02-12T05:29:54;98147.09;;;-1.05;100.00
57644;BME280;43474;46.510;6.686;2023-02-12T05:32:21;98158.84;;;-0.67;100.00
57644;BME280;43474;46.510;6.686;2023-02-12T05:34:47;98097.19;;;-0.99;100.00
57644;BME280;43474;46.510;6.686;2023-02-12T05:37:12;98143.91;;;-0.54;100.00
57644;BME280;43474;46.510;6.686;2023-02-12T05:39:38;98137.38;;;-0.48;100.00
57644;BME280;43474;46.510;6.686;2023-02-12T05:42:04;98167.06;;;-0.40;100.00
57644;BME280;43474;46.510;6.686;2023-02-12T05:44:29;98162.91;;;-0.42;100.00
57644;BME280;43474;46.510;6.686;2023-02-12T05:46:55;98158.38;;;-0.40;100.00
57644;BME280;43474;46.510;6.686;2023-02-12T05:49:20;98152.63;;;-0.55;100.00
57644;BME280;43474;46.510;6.686;2023-02-12T05:51:46;98155.88;;;-0.63;100.00
57644;BME280;43474;46.510;6.686;2023-02-12T05:54:12;98154.22;;;-0.64;100.00
57644;BME280;43474;46.510;6.686;2023-02-12T05:56:42;98153.78;;;-0.69;100.00
57644;BME280;43474;46.510;6.686;2023-02-12T05:59:17;98145.06;;;-0.79;100.00
57644;BME280;43474;46.510;6.686;2023-02-12T06:01:44;98159.03;;;-0.91;100.00
57644;BME280;43474;46.510;6.686;2023-02-12T06:04:14;98153.41;;;-0.75;100.00
57644;BME280;43474;46.510;6.686;2023-02-12T06:06:40;98179.91;;;-0.70;100.00
57644;BME280;43474;46.510;6.686;2023-02-12T06:09:09;98174.97;;;-0.73;100.00
57644;BME280;43474;46.510;6.686;2023-02-12T06:11:36;98152.41;;;-0.84;100.00
57644;BME280;43474;46.510;6.686;2023-02-12T06:14:03;98170.97;;;-0.89;100.00
57644;BME280;43474;46.510;6.686;2023-02-12T06:16:29;98161.78;;;-1.04;100.00
57644;BME280;43474;46.510;6.686;2023-02-12T06:18:55;98175.25;;;-0.99;100.00
57644;BME280;43474;46.510;6.686;2023-02-12T06:21:22;98182.94;;;-0.97;100.00
57644;BME280;43474;46.510;6.686;2023-02-12T06:23:49;98176.19;;;-0.89;100.00
57644;BME280;43474;46.510;6.686;2023-02-12T06:26:15;98165.19;;;-0.92;100.00
57644;BME280;43474;46.510;6.686;2023-02-12T06:28:41;98187.28;;;-0.87;100.00
57644;BME280;43474;46.510;6.686;2023-02-12T06:33:43;98168.41;;;-1.11;100.00
57644;BME280;43474;46.510;6.686;2023-02-12T06:36:09;98160.59;;;-1.11;100.00
57644;BME280;43474;46.510;6.686;2023-02-12T06:38:34;98176.31;;;-1.13;100.00
57644;BME280;43474;46.510;6.686;2023-02-12T06:41:01;98179.88;;;-1.25;100.00
57644;BME280;43474;46.510;6.686;2023-02-12T06:43:27;98190.88;;;-1.33;100.00
57644;BME280;43474;46.510;6.686;2023-02-12T06:45:52;98175.03;;;-1.41;100.00
57644;BME280;43474;46.510;6.686;2023-02-12T06:48:18;98182.47;;;-1.36;100.00
57644;BME280;43474;46.510;6.686;2023-02-12T06:50:44;98187.19;;;-1.41;100.00
57644;BME280;43474;46.510;6.686;2023-02-12T06:53:09;98182.34;;;-1.35;100.00
57644;BME280;43474;46.510;6.686;2023-02-12T06:55:35;98178.47;;;-1.29;100.00
57644;BME280;43474;46.510;6.686;2023-02-12T06:58:00;98166.66;;;-1.33;100.00
57644;BME280;43474;46.510;6.686;2023-02-12T07:00:26;98194.28;;;-1.10;100.00
57644;BME280;43474;46.510;6.686;2023-02-12T07:02:53;98193.91;;;-1.05;100.00
57644;BME280;43474;46.510;6.686;2023-02-12T07:05:19;98177.72;;;-0.97;100.00
57644;BME280;43474;46.510;6.686;2023-02-12T07:07:45;98174.41;;;-0.88;100.00
57644;BME280;43474;46.510;6.686;2023-02-12T07:10:10;98193.16;;;-0.62;100.00
57644;BME280;43474;46.510;6.686;2023-02-12T07:12:36;98202.97;;;-0.66;100.00
57644;BME280;43474;46.510;6.686;2023-02-12T07:15:01;98211.84;;;-0.57;100.00
57644;BME280;43474;46.510;6.686;2023-02-12T07:17:28;98196.63;;;-0.30;100.00
57644;BME280;43474;46.510;6.686;2023-02-12T07:19:54;98202.22;;;-0.13;100.00
57644;BME280;43474;46.510;6.686;2023-02-12T07:22:20;98219.78;;;0.06;100.00
57644;BME280;43474;46.510;6.686;2023-02-12T07:24:46;98208.66;;;0.24;100.00
57644;BME280;43474;46.510;6.686;2023-02-12T07:27:13;98206.03;;;0.24;100.00
57644;BME280;43474;46.510;6.686;2023-02-12T07:29:38;98203.63;;;0.33;100.00
57644;BME280;43474;46.510;6.686;2023-02-12T07:32:04;98199.94;;;0.35;100.00
57644;BME280;43474;46.510;6.686;2023-02-12T07:34:30;98192.56;;;0.40;100.00
57644;BME280;43474;46.510;6.686;2023-02-12T07:36:56;98213.13;;;0.64;100.00
57644;BME280;43474;46.510;6.686;2023-02-12T07:39:21;98219.94;;;0.76;100.00
57644;BME280;43474;46.510;6.686;2023-02-12T07:41:47;98195.75;;;0.74;100.00
57644;BME280;43474;46.510;6.686;2023-02-12T07:44:12;98195.97;;;0.92;100.00
57644;BME280;43474;46.510;6.686;2023-02-12T07:46:44;98209.91;;;1.12;100.00
57644;BME280;43474;46.510;6.686;2023-02-12T07:49:12;98207.19;;;1.23;100.00
57644;BME280;43474;46.510;6.686;2023-02-12T07:51:39;98220.16;;;1.54;100.00
57644;BME280;43474;46.510;6.686;2023-02-12T07:54:05;98211.25;;;2.34;100.00
57644;BME280;43474;46.510;6.686;2023-02-12T07:56:32;98217.16;;;2.36;100.00
57644;BME280;43474;46.510;6.686;2023-02-12T07:59:04;98206.03;;;2.24;100.00
57644;BME280;43474;46.510;6.686;2023-02-12T08:01:33;98187.38;;;2.47;100.00
57644;BME280;43474;46.510;6.686;2023-02-12T08:04:08;98207.34;;;3.50;100.00
57644;BME280;43474;46.510;6.686;2023-02-12T08:06:37;98203.44;;;4.07;100.00
57644;BME280;43474;46.510;6.686;2023-02-12T08:09:05;98213.09;;;4.43;100.00
57644;BME280;43474;46.510;6.686;2023-02-12T08:11:32;98217.97;;;4.89;96.66
57644;BME280;43474;46.510;6.686;2023-02-12T08:13:58;98220.69;;;5.48;93.58
57644;BME280;43474;46.510;6.686;2023-02-12T08:16:26;98196.97;;;5.99;90.18
57644;BME280;43474;46.510;6.686;2023-02-12T08:18:52;98213.91;;;6.45;85.33
57644;BME280;43474;46.510;6.686;2023-02-12T08:21:20;98220.09;;;6.93;84.45
57644;BME280;43474;46.510;6.686;2023-02-12T08:23:47;98217.41;;;7.09;84.75
57644;BME280;43474;46.510;6.686;2023-02-12T08:26:18;98208.81;;;7.15;83.90
57644;BME280;43474;46.510;6.686;2023-02-12T08:28:46;98213.66;;;7.74;84.58
57644;BME280;43474;46.510;6.686;2023-02-12T08:31:18;98213.75;;;8.12;79.03
57644;BME280;43474;46.510;6.686;2023-02-12T08:33:48;98197.53;;;8.38;78.19
57644;BME280;43474;46.510;6.686;2023-02-12T08:36:16;98209.47;;;8.86;74.97
57644;BME280;43474;46.510;6.686;2023-02-12T08:38:43;98214.91;;;8.32;71.79
57644;BME280;43474;46.510;6.686;2023-02-12T08:41:15;98209.25;;;8.58;72.56
57644;BME280;43474;46.510;6.686;2023-02-12T08:43:41;98210.66;;;9.13;68.00
57644;BME280;43474;46.510;6.686;2023-02-12T08:46:10;98206.72;;;9.09;66.15
57644;BME280;43474;46.510;6.686;2023-02-12T08:48:36;98206.63;;;9.47;65.68
57644;BME280;43474;46.510;6.686;2023-02-12T08:51:14;98210.41;;;9.59;64.45
57644;BME280;43474;46.510;6.686;2023-02-12T08:53:41;98208.19;;;9.77;64.65
57644;BME280;43474;46.510;6.686;2023-02-12T08:56:09;98186.94;;;9.71;62.63
57644;BME280;43474;46.510;6.686;2023-02-12T08:58:36;98199.47;;;10.20;63.01
57644;BME280;43474;46.510;6.686;2023-02-12T09:01:03;98198.59;;;9.76;62.69
57644;BME280;43474;46.510;6.686;2023-02-12T09:03:29;98197.22;;;9.80;61.03
57644;BME280;43474;46.510;6.686;2023-02-12T09:05:55;98184.22;;;8.98;61.21
57644;BME280;43474;46.510;6.686;2023-02-12T09:08:21;98189.53;;;9.49;63.65
57644;BME280;43474;46.510;6.686;2023-02-12T09:10:47;98186.38;;;9.75;67.28
57644;BME280;43474;46.510;6.686;2023-02-12T09:13:13;98196.03;;;9.83;63.39
57644;BME280;43474;46.510;6.686;2023-02-12T09:15:41;98188.03;;;9.76;63.98
57644;BME280;43474;46.510;6.686;2023-02-12T09:18:07;98187.63;;;10.22;65.21
57644;BME280;43474;46.510;6.686;2023-02-12T09:20:36;98189.81;;;10.33;66.56
57644;BME280;43474;46.510;6.686;2023-02-12T09:23:03;98179.25;;;10.19;65.55
57644;BME280;43474;46.510;6.686;2023-02-12T09:25:28;98199.19;;;9.93;67.23
57644;BME280;43474;46.510;6.686;2023-02-12T09:27:55;98186.91;;;9.86;68.04
57644;BME280;43474;46.510;6.686;2023-02-12T09:30:21;98200.50;;;9.82;70.61
57644;BME280;43474;46.510;6.686;2023-02-12T09:32:46;98196.06;;;9.02;72.67
57644;BME280;43474;46.510;6.686;2023-02-12T09:35:12;98181.28;;;9.08;74.31
57644;BME280;43474;46.510;6.686;2023-02-12T09:37:38;98206.09;;;9.07;75.86
57644;BME280;43474;46.510;6.686;2023-02-12T09:40:05;98191.59;;;9.18;78.86
57644;BME280;43474;46.510;6.686;2023-02-12T09:42:50;98192.84;;;9.51;76.09
57644;BME280;43474;46.510;6.686;2023-02-12T09:45:20;98212.91;;;9.61;75.13
57644;BME280;43474;46.510;6.686;2023-02-12T09:50:42;98214.84;;;9.37;74.09
57644;BME280;43474;46.510;6.686;2023-02-12T09:53:15;98205.25;;;9.51;76.23
57644;BME280;43474;46.510;6.686;2023-02-12T09:55:42;98212.50;;;9.64;74.97
57644;BME280;43474;46.510;6.686;2023-02-12T09:58:19;98188.03;;;9.98;74.18
57644;BME280;43474;46.510;6.686;2023-02-12T10:00:46;98172.16;;;9.40;74.65
57644;BME280;43474;46.510;6.686;2023-02-12T10:03:14;98206.34;;;9.78;74.98
57644;BME280;43474;46.510;6.686;2023-02-12T10:06:00;98201.13;;;9.48;73.31
57644;BME280;43474;46.510;6.686;2023-02-12T10:08:48;98201.91;;;9.27;73.67
57644;BME280;43474;46.510;6.686;2023-02-12T10:22:37;98212.00;;;9.39;72.88
57644;BME280;43474;46.510;6.686;2023-02-12T10:28:24;98207.06;;;9.50;74.70
57644;BME280;43474;46.510;6.686;2023-02-12T10:30:54;98208.28;;;9.33;72.11
57644;BME280;43474;46.510;6.686;2023-02-12T10:33:34;98212.56;;;9.34;72.91
57644;BME280;43474;46.510;6.686;2023-02-12T10:36:15;98213.22;;;9.21;73.96
57644;BME280;43474;46.510;6.686;2023-02-12T10:38:48;98203.09;;;9.25;73.98
57644;BME280;43474;46.510;6.686;2023-02-12T10:41:14;98200.56;;;9.53;71.64
57644;BME280;43474;46.510;6.686;2023-02-12T10:43:40;98189.63;;;9.56;71.11
57644;BME280;43474;46.510;6.686;2023-02-12T10:46:14;98184.25;;;9.86;73.54
57644;BME280;43474;46.510;6.686;2023-02-12T10:48:43;98186.50;;;9.89;70.64
57644;BME280;43474;46.510;6.686;2023-02-12T10:53:55;98194.38;;;9.82;70.04
57644;BME280;43474;46.510;6.686;2023-02-12T10:56:21;98190.06;;;9.59;71.96
57644;BME280;43474;46.510;6.686;2023-02-12T11:01:18;98172.25;;;9.68;72.40
57644;BME280;43474;46.510;6.686;2023-02-12T11:03:44;98170.50;;;9.97;72.03
57644;BME280;43474;46.510;6.686;2023-02-12T11:06:16;98158.81;;;10.13;73.71
57644;BME280;43474;46.510;6.686;2023-02-12T11:08:43;98162.34;;;9.98;71.22
57644;BME280;43474;46.510;6.686;2023-02-12T11:11:11;98166.19;;;9.74;71.23
57644;BME280;43474;46.510;6.686;2023-02-12T11:13:41;98152.56;;;9.56;71.65
57644;BME280;43474;46.510;6.686;2023-02-12T11:16:08;98151.63;;;9.64;71.79
57644;BME280;43474;46.510;6.686;2023-02-12T11:18:35;98142.41;;;9.59;73.20
57644;BME280;43474;46.510;6.686;2023-02-12T11:21:07;98124.16;;;9.65;71.94
57644;BME280;43474;46.510;6.686;2023-02-12T11:29:22;98119.94;;;9.92;70.88
57644;BME280;43474;46.510;6.686;2023-02-12T11:32:03;98129.28;;;9.66;71.15
57644;BME280;43474;46.510;6.686;2023-02-12T11:34:30;98106.19;;;9.81;70.92
57644;BME280;43474;46.510;6.686;2023-02-12T11:36:56;98135.06;;;9.76;70.54
57644;BME280;43474;46.510;6.686;2023-02-12T11:39:23;98120.63;;;9.79;68.67
57644;BME280;43474;46.510;6.686;2023-02-12T11:41:56;98117.72;;;9.74;70.19
57644;BME280;43474;46.510;6.686;2023-02-12T11:44:28;98107.78;;;9.76;69.20
57644;BME280;43474;46.510;6.686;2023-02-12T11:47:00;98117.59;;;10.03;70.79
57644;BME280;43474;46.510;6.686;2023-02-12T11:49:35;98119.41;;;10.03;69.06
57644;BME280;43474;46.510;6.686;2023-02-12T11:52:03;98082.13;;;9.55;70.78
57644;BME280;43474;46.510;6.686;2023-02-12T11:54:41;98094.38;;;10.05;70.96
57644;BME280;43474;46.510;6.686;2023-02-12T11:58:01;98101.13;;;10.29;69.30
57644;BME280;43474;46.510;6.686;2023-02-12T12:00:28;98091.25;;;10.23;67.38
57644;BME280;43474;46.510;6.686;2023-02-12T12:05:58;98106.00;;;10.04;68.37
57644;BME280;43474;46.510;6.686;2023-02-12T12:08:28;98071.44;;;10.19;68.58
57644;BME280;43474;46.510;6.686;2023-02-12T12:11:08;98075.56;;;10.22;67.07
57644;BME280;43474;46.510;6.686;2023-02-12T12:13:42;98070.97;;;9.81;68.29
57644;BME280;43474;46.510;6.686;2023-02-12T12:16:13;98052.38;;;9.53;68.82
57644;BME280;43474;46.510;6.686;2023-02-12T12:19:05;98072.28;;;9.70;69.11
57644;BME280;43474;46.510;6.686;2023-02-12T12:24:52;98079.84;;;9.95;68.22
57644;BME280;43474;46.510;6.686;2023-02-12T12:27:30;98065.41;;;9.54;65.94
57644;BME280;43474;46.510;6.686;2023-02-12T12:30:24;98080.03;;;9.72;66.97
57644;BME280;43474;46.510;6.686;2023-02-12T12:32:58;98062.19;;;9.80;65.23
57644;BME280;43474;46.510;6.686;2023-02-12T12:35:39;98076.63;;;9.56;65.67
57644;BME280;43474;46.510;6.686;2023-02-12T12:38:24;98075.22;;;9.39;68.53
57644;BME280;43474;46.510;6.686;2023-02-12T12:41:09;98064.59;;;9.54;68.88
57644;BME280;43474;46.510;6.686;2023-02-12T12:43:48;98051.09;;;9.49;68.24
57644;BME280;43474;46.510;6.686;2023-02-12T12:46:33;98062.63;;;9.84;68.93
57644;BME280;43474;46.510;6.686;2023-02-12T12:49:26;98062.34;;;10.00;66.86
57644;BME280;43474;46.510;6.686;2023-02-12T12:54:59;98038.78;;;9.84;66.36
57644;BME280;43474;46.510;6.686;2023-02-12T13:01:02;98049.03;;;9.94;65.82
57644;BME280;43474;46.510;6.686;2023-02-12T13:06:22;98053.59;;;9.78;65.47
57644;BME280;43474;46.510;6.686;2023-02-12T13:09:02;98034.22;;;9.99;66.40
57644;BME280;43474;46.510;6.686;2023-02-12T13:14:25;98043.00;;;10.00;65.23
57644;BME280;43474;46.510;6.686;2023-02-12T13:19:46;98042.13;;;9.93;63.03
57644;BME280;43474;46.510;6.686;2023-02-12T13:27:58;98036.19;;;9.63;64.36
57644;BME280;43474;46.510;6.686;2023-02-12T13:30:30;98021.81;;;9.50;63.86
57644;BME280;43474;46.510;6.686;2023-02-12T13:33:06;98010.28;;;9.37;65.22
57644;BME280;43474;46.510;6.686;2023-02-12T13:35:34;98019.34;;;9.49;65.59
57644;BME280;43474;46.510;6.686;2023-02-12T13:38:05;98013.19;;;9.42;65.17
57644;BME280;43474;46.510;6.686;2023-02-12T13:40:33;98013.47;;;9.75;65.80
57644;BME280;43474;46.510;6.686;2023-02-12T13:45:51;98019.78;;;9.52;68.60
57644;BME280;43474;46.510;6.686;2023-02-12T13:48:46;98015.81;;;9.63;65.18
57644;BME280;43474;46.510;6.686;2023-02-12T13:51:42;98021.88;;;9.57;66.78
57644;BME280;43474;46.510;6.686;2023-02-12T13:54:21;98014.38;;;9.61;65.50
57644;BME280;43474;46.510;6.686;2023-02-12T13:56:52;98002.72;;;9.55;66.71
57644;BME280;43474;46.510;6.686;2023-02-12T14:02:08;98013.63;;;9.45;63.86
57644;BME280;43474;46.510;6.686;2023-02-12T14:07:18;98029.63;;;9.16;66.23
57644;BME280;43474;46.510;6.686;2023-02-12T14:12:14;98021.91;;;8.99;66.47
57644;BME280;43474;46.510;6.686;2023-02-12T14:14:46;98027.41;;;9.19;67.49
57644;BME280;43474;46.510;6.686;2023-02-12T14:23:25;98019.91;;;9.44;66.28
57644;BME280;43474;46.510;6.686;2023-02-12T14:26:10;98020.88;;;9.58;64.20
57644;BME280;43474;46.510;6.686;2023-02-12T14:33:44;98017.28;;;9.44;65.96
57644;BME280;43474;46.510;6.686;2023-02-12T14:39:44;98021.13;;;9.42;66.00
57644;BME280;43474;46.510;6.686;2023-02-12T14:41:52;98018.28;;;9.43;66.01
57644;BME280;43474;46.510;6.686;2023-02-12T14:46:58;98024.16;;;9.17;65.98
57644;BME280;43474;46.510;6.686;2023-02-12T14:49:32;98036.50;;;9.10;66.80
57644;BME280;43474;46.510;6.686;2023-02-12T14:52:05;98042.13;;;9.07;67.27
57644;BME280;43474;46.510;6.686;2023-02-12T14:54:42;98033.19;;;9.08;66.43
57644;BME280;43474;46.510;6.686;2023-02-12T14:57:27;98038.94;;;9.12;66.68
57644;BME280;43474;46.510;6.686;2023-02-12T15:02:34;98024.34;;;9.16;66.43
57644;BME280;43474;46.510;6.686;2023-02-12T15:05:04;98027.34;;;9.34;67.83
57644;BME280;43474;46.510;6.686;2023-02-12T15:07:36;98034.34;;;9.42;66.49
57644;BME280;43474;46.510;6.686;2023-02-12T15:10:14;98012.94;;;9.37;66.68
57644;BME280;43474;46.510;6.686;2023-02-12T15:15:56;98035.97;;;9.64;64.23
57644;BME280;43474;46.510;6.686;2023-02-12T15:21:34;98035.69;;;9.31;65.53
57644;BME280;43474;46.510;6.686;2023-02-12T15:24:04;98038.00;;;9.19;66.74
57644;BME280;43474;46.510;6.686;2023-02-12T15:26:42;98027.44;;;8.68;68.54
57644;BME280;43474;46.510;6.686;2023-02-12T15:29:20;98029.00;;;8.77;68.70